sensor_id;sensor_type;location;lat;lon;timestamp;pressure;altitude;pressure_sealevel;temperature;humidity
28911;BME280;16028;42.642;23.310;2022-07-06T00:00:19;93946.03;;;20.21;100.00
28911;BME280;16028;42.642;23.310;2022-07-06T00:02:46;93946.47;;;20.12;100.00
28911;BME280;16028;42.642;23.310;2022-07-06T00:05:14;93963.56;;;20.02;100.00
28911;BME280;16028;42.642;23.310;2022-07-06T00:07:41;93961.34;;;19.93;100.00
28911;BME280;16028;42.642;23.310;2022-07-06T00:10:08;93960.94;;;19.83;100.00
28911;BME280;16028;42.642;23.310;2022-07-06T00:12:35;93972.72;;;19.74;100.00
28911;BME280;16028;42.642;23.310;2022-07-06T00:15:02;93977.78;;;19.82;100.00
28911;BME280;16028;42.642;23.310;2022-07-06T00:17:29;93987.16;;;19.78;100.00
28911;BME280;16028;42.642;23.310;2022-07-06T00:19:55;94004.41;;;19.67;100.00
28911;BME280;16028;42.642;23.310;2022-07-06T00:22:23;93995.47;;;19.62;100.00
28911;BME280;16028;42.642;23.310;2022-07-06T00:24:50;93994.25;;;19.58;100.00
28911;BME280;16028;42.642;23.310;2022-07-06T00:27:17;93999.34;;;19.52;100.00
28911;BME280;16028;42.642;23.310;2022-07-06T00:29:44;94008.84;;;19.53;100.00
28911;BME280;16028;42.642;23.310;2022-07-06T00:32:11;94020.44;;;19.52;100.00
28911;BME280;16028;42.642;23.310;2022-07-06T00:34:38;94013.53;;;19.51;100.00
28911;BME280;16028;42.642;23.310;2022-07-06T00:37:06;94019.00;;;19.50;100.00
28911;BME280;16028;42.642;23.310;2022-07-06T00:39:34;94015.78;;;19.54;100.00
28911;BME280;16028;42.642;23.310;2022-07-06T00:42:01;94019.84;;;19.64;100.00
28911;BME280;16028;42.642;23.310;2022-07-06T00:44:27;94019.25;;;19.68;100.00
28911;BME280;16028;42.642;23.310;2022-07-06T00:46:56;94013.16;;;19.74;100.00
28911;BME280;16028;42.642;23.310;2022-07-06T00:49:23;94017.63;;;19.80;100.00
28911;BME280;16028;42.642;23.310;2022-07-06T00:52:07;94017.19;;;19.77;100.00
28911;BME280;16028;42.642;23.310;2022-07-06T00:54:36;94017.38;;;19.75;100.00
28911;BME280;16028;42.642;23.310;2022-07-06T00:57:03;94010.69;;;19.79;100.00
28911;BME280;16028;42.642;23.310;2022-07-06T00:59:30;94003.78;;;19.85;100.00
28911;BME280;16028;42.642;23.310;2022-07-06T01:01:58;93990.81;;;19.83;100.00
28911;BME280;16028;42.642;23.310;2022-07-06T01:04:24;93982.47;;;19.80;100.00
28911;BME280;16028;42.642;23.310;2022-07-06T01:06:51;93972.91;;;19.79;100.00
28911;BME280;16028;42.642;23.310;2022-07-06T01:09:18;93969.88;;;19.82;100.00
28911;BME280;16028;42.642;23.310;2022-07-06T01:11:47;93965.81;;;19.86;100.00
28911;BME280;16028;42.642;23.310;2022-07-06T01:14:14;93962.97;;;19.87;100.00
28911;BME280;16028;42.642;23.310;2022-07-06T01:16:41;93964.41;;;19.83;100.00
28911;BME280;16028;42.642;23.310;2022-07-06T01:19:08;93963.81;;;19.81;100.00
28911;BME280;16028;42.642;23.310;2022-07-06T01:21:37;93969.28;;;19.73;100.00
28911;BME280;16028;42.642;23.310;2022-07-06T01:24:05;93970.28;;;19.72;100.00
28911;BME280;16028;42.642;23.310;2022-07-06T01:26:31;93961.97;;;19.75;100.00
28911;BME280;16028;42.642;23.310;2022-07-06T01:28:58;93973.53;;;19.81;100.00
28911;BME280;16028;42.642;23.310;2022-07-06T01:31:26;93973.13;;;19.84;100.00
28911;BME280;16028;42.642;23.310;2022-07-06T01:33:55;93976.19;;;19.74;100.00
28911;BME280;16028;42.642;23.310;2022-07-06T01:36:23;93969.69;;;19.70;100.00
28911;BME280;16028;42.642;23.310;2022-07-06T01:38:52;93973.75;;;19.66;100.00
28911;BME280;16028;42.642;23.310;2022-07-06T01:41:20;93969.50;;;19.65;100.00
28911;BME280;16028;42.642;23.310;2022-07-06T01:43:47;93970.91;;;19.61;100.00
28911;BME280;16028;42.642;23.310;2022-07-06T01:46:15;93960.75;;;19.58;100.00
28911;BME280;16028;42.642;23.310;2022-07-06T01:48:42;93964.81;;;19.61;100.00
28911;BME280;16028;42.642;23.310;2022-07-06T01:51:09;93968.28;;;19.61;100.00
28911;BME280;16028;42.642;23.310;2022-07-06T01:53:37;93977.59;;;19.64;100.00
28911;BME280;16028;42.642;23.310;2022-07-06T01:56:06;93972.31;;;19.64;100.00
28911;BME280;16028;42.642;23.310;2022-07-06T01:58:33;93974.16;;;19.63;100.00
28911;BME280;16028;42.642;23.310;2022-07-06T02:01:00;93977.81;;;19.69;100.00
28911;BME280;16028;42.642;23.310;2022-07-06T02:03:26;93981.47;;;19.68;100.00
28911;BME280;16028;42.642;23.310;2022-07-06T02:05:53;93982.69;;;19.59;100.00
28911;BME280;16028;42.642;23.310;2022-07-06T02:08:20;93978.63;;;19.49;100.00
28911;BME280;16028;42.642;23.310;2022-07-06T02:10:47;93980.84;;;19.46;100.00
28911;BME280;16028;42.642;23.310;2022-07-06T02:13:15;93988.78;;;19.46;100.00
28911;BME280;16028;42.642;23.310;2022-07-06T02:15:42;93976.38;;;19.46;100.00
28911;BME280;16028;42.642;23.310;2022-07-06T02:18:08;93980.84;;;19.46;100.00
28911;BME280;16028;42.642;23.310;2022-07-06T02:20:35;93983.50;;;19.46;100.00
28911;BME280;16028;42.642;23.310;2022-07-06T02:23:02;93975.16;;;19.42;100.00
28911;BME280;16028;42.642;23.310;2022-07-06T02:25:29;93975.16;;;19.42;100.00
28911;BME280;16028;42.642;23.310;2022-07-06T02:27:56;93978.22;;;19.46;100.00
28911;BME280;16028;42.642;23.310;2022-07-06T02:30:25;93980.84;;;19.46;100.00
28911;BME280;16028;42.642;23.310;2022-07-06T02:32:52;93970.09;;;19.41;100.00
28911;BME280;16028;42.642;23.310;2022-07-06T02:35:18;93967.25;;;19.49;100.00
28911;BME280;16028;42.642;23.310;2022-07-06T02:37:45;93965.44;;;19.43;100.00
28911;BME280;16028;42.642;23.310;2022-07-06T02:40:12;93976.38;;;19.46;100.00
28911;BME280;16028;42.642;23.310;2022-07-06T02:42:39;93976.19;;;19.48;100.00
28911;BME280;16028;42.642;23.310;2022-07-06T02:45:07;93966.22;;;19.50;100.00
28911;BME280;16028;42.642;23.310;2022-07-06T02:47:36;93969.28;;;19.53;100.00
28911;BME280;16028;42.642;23.310;2022-07-06T02:50:04;93975.59;;;19.52;100.00
28911;BME280;16028;42.642;23.310;2022-07-06T02:52:31;93971.91;;;19.53;100.00
28911;BME280;16028;42.642;23.310;2022-07-06T02:54:58;93976.38;;;19.53;100.00
28911;BME280;16028;42.642;23.310;2022-07-06T02:57:25;93983.88;;;19.56;100.00
28911;BME280;16028;42.642;23.310;2022-07-06T02:59:51;93979.22;;;19.58;100.00
28911;BME280;16028;42.642;23.310;2022-07-06T03:02:18;93976.59;;;19.58;100.00
28911;BME280;16028;42.642;23.310;2022-07-06T03:04:46;93973.34;;;19.49;100.00
28911;BME280;16028;42.642;23.310;2022-07-06T03:07:13;93970.50;;;19.44;100.00
28911;BME280;16028;42.642;23.310;2022-07-06T03:09:40;93970.91;;;19.41;100.00
28911;BME280;16028;42.642;23.310;2022-07-06T03:12:07;93981.81;;;19.38;100.00
28911;BME280;16028;42.642;23.310;2022-07-06T03:14:34;93973.53;;;19.41;100.00
28911;BME280;16028;42.642;23.310;2022-07-06T03:17:01;93976.53;;;19.32;100.00
28911;BME280;16028;42.642;23.310;2022-07-06T03:19:28;93976.94;;;19.35;100.00
28911;BME280;16028;42.642;23.310;2022-07-06T03:21:57;93985.47;;;19.31;100.00
28911;BME280;16028;42.642;23.310;2022-07-06T03:24:23;93988.31;;;19.29;100.00
28911;BME280;16028;42.642;23.310;2022-07-06T03:26:50;93981.00;;;19.25;100.00
28911;BME280;16028;42.642;23.310;2022-07-06T03:29:17;93985.25;;;19.19;100.00
28911;BME280;16028;42.642;23.310;2022-07-06T03:31:44;93992.75;;;19.22;100.00
28911;BME280;16028;42.642;23.310;2022-07-06T03:34:11;94001.25;;;19.18;100.00
28911;BME280;16028;42.642;23.310;2022-07-06T03:36:38;93995.41;;;19.22;100.00
28911;BME280;16028;42.642;23.310;2022-07-06T03:39:07;93996.41;;;19.21;100.00
28911;BME280;16028;42.642;23.310;2022-07-06T03:41:33;93994.16;;;19.18;100.00
28911;BME280;16028;42.642;23.310;2022-07-06T03:44:00;93995.19;;;19.17;100.00
28911;BME280;16028;42.642;23.310;2022-07-06T03:46:27;94011.03;;;19.24;100.00
28911;BME280;16028;42.642;23.310;2022-07-06T03:48:55;94013.03;;;19.22;100.00
28911;BME280;16028;42.642;23.310;2022-07-06T03:51:22;94003.13;;;19.24;100.00
28911;BME280;16028;42.642;23.310;2022-07-06T03:53:48;94003.31;;;19.22;100.00
28911;BME280;16028;42.642;23.310;2022-07-06T03:56:17;94005.78;;;19.30;100.00
28911;BME280;16028;42.642;23.310;2022-07-06T03:58:59;94001.69;;;19.28;99.07
28911;BME280;16028;42.642;23.310;2022-07-06T04:01:26;94004.97;;;19.30;99.27
28911;BME280;16028;42.642;23.310;2022-07-06T04:03:53;94005.75;;;19.37;98.32
28911;BME280;16028;42.642;23.310;2022-07-06T04:06:20;94004.19;;;19.42;99.79
28911;BME280;16028;42.642;23.310;2022-07-06T04:08:47;94006.84;;;19.49;99.18
28911;BME280;16028;42.642;23.310;2022-07-06T04:11:14;94009.25;;;19.50;99.94
28911;BME280;16028;42.642;23.310;2022-07-06T04:13:42;94013.53;;;19.51;100.00
28911;BME280;16028;42.642;23.310;2022-07-06T04:16:09;94008.44;;;19.57;100.00
28911;BME280;16028;42.642;23.310;2022-07-06T04:18:36;94015.56;;;19.63;100.00
28911;BME280;16028;42.642;23.310;2022-07-06T04:21:02;94019.25;;;19.75;96.98
28911;BME280;16028;42.642;23.310;2022-07-06T04:23:30;94012.09;;;19.75;97.03
28911;BME280;16028;42.642;23.310;2022-07-06T04:25:57;94006.03;;;19.81;96.24
28911;BME280;16028;42.642;23.310;2022-07-06T04:28:24;94019.03;;;19.76;97.22
28911;BME280;16028;42.642;23.310;2022-07-06T04:30:52;94020.84;;;19.82;97.85
28911;BME280;16028;42.642;23.310;2022-07-06T04:33:19;94019.22;;;19.88;97.45
28911;BME280;16028;42.642;23.310;2022-07-06T04:35:46;94012.09;;;19.95;97.11
28911;BME280;16028;42.642;23.310;2022-07-06T04:38:13;94023.28;;;20.03;95.50
28911;BME280;16028;42.642;23.310;2022-07-06T04:40:39;94027.75;;;20.10;95.55
28911;BME280;16028;42.642;23.310;2022-07-06T04:43:06;94038.31;;;20.10;96.28
28911;BME280;16028;42.642;23.310;2022-07-06T04:45:33;94042.38;;;20.19;97.05
28911;BME280;16028;42.642;23.310;2022-07-06T04:48:02;94045.19;;;20.24;94.69
28911;BME280;16028;42.642;23.310;2022-07-06T04:50:29;94051.75;;;20.28;92.78
28911;BME280;16028;42.642;23.310;2022-07-06T04:52:57;94069.38;;;20.21;94.57
28911;BME280;16028;42.642;23.310;2022-07-06T04:55:27;94064.72;;;20.23;94.00
28911;BME280;16028;42.642;23.310;2022-07-06T04:57:54;94067.97;;;20.25;92.51
28911;BME280;16028;42.642;23.310;2022-07-06T05:00:20;94078.13;;;20.08;94.55
28911;BME280;16028;42.642;23.310;2022-07-06T05:02:47;94076.94;;;19.91;95.16
28911;BME280;16028;42.642;23.310;2022-07-06T05:05:16;94087.66;;;19.76;96.84
28911;BME280;16028;42.642;23.310;2022-07-06T05:07:43;94080.56;;;19.70;97.79
28911;BME280;16028;42.642;23.310;2022-07-06T05:10:10;94087.63;;;19.63;97.59
28911;BME280;16028;42.642;23.310;2022-07-06T05:12:38;94083.78;;;19.66;97.96
28911;BME280;16028;42.642;23.310;2022-07-06T05:15:06;94085.81;;;19.64;99.22
28911;BME280;16028;42.642;23.310;2022-07-06T05:17:33;94083.19;;;19.64;100.00
28911;BME280;16028;42.642;23.310;2022-07-06T05:20:00;94095.16;;;19.66;99.02
28911;BME280;16028;42.642;23.310;2022-07-06T05:22:28;94087.88;;;19.68;97.15
28911;BME280;16028;42.642;23.310;2022-07-06T05:24:55;94081.13;;;19.66;97.01
28911;BME280;16028;42.642;23.310;2022-07-06T05:27:22;94094.75;;;19.69;97.66
28911;BME280;16028;42.642;23.310;2022-07-06T05:29:49;94105.72;;;19.73;96.13
28911;BME280;16028;42.642;23.310;2022-07-06T05:32:16;94103.06;;;19.66;96.83
28911;BME280;16028;42.642;23.310;2022-07-06T05:34:43;94101.09;;;19.75;95.12
28911;BME280;16028;42.642;23.310;2022-07-06T05:37:10;94098.22;;;19.76;95.01
28911;BME280;16028;42.642;23.310;2022-07-06T05:39:38;94104.50;;;19.75;93.44
28911;BME280;16028;42.642;23.310;2022-07-06T05:42:09;94100.25;;;19.74;94.16
28911;BME280;16028;42.642;23.310;2022-07-06T05:44:35;94103.72;;;19.81;93.54
28911;BME280;16028;42.642;23.310;2022-07-06T05:47:03;94113.66;;;19.86;94.02
28911;BME280;16028;42.642;23.310;2022-07-06T05:49:43;94111.88;;;19.99;92.53
28911;BME280;16028;42.642;23.310;2022-07-06T05:52:27;94102.13;;;19.93;91.08
28911;BME280;16028;42.642;23.310;2022-07-06T05:54:56;94114.28;;;19.94;93.18
28911;BME280;16028;42.642;23.310;2022-07-06T05:57:22;94110.44;;;19.90;92.26
28911;BME280;16028;42.642;23.310;2022-07-06T05:59:49;94104.75;;;20.00;90.90
28911;BME280;16028;42.642;23.310;2022-07-06T06:02:16;94110.84;;;20.00;92.25
28911;BME280;16028;42.642;23.310;2022-07-06T06:04:43;94110.22;;;20.05;91.80
28911;BME280;16028;42.642;23.310;2022-07-06T06:07:10;94106.59;;;20.06;92.31
28911;BME280;16028;42.642;23.310;2022-07-06T06:09:37;94110.84;;;20.14;91.71
28911;BME280;16028;42.642;23.310;2022-07-06T06:12:05;94110.25;;;20.12;90.81
28911;BME280;16028;42.642;23.310;2022-07-06T06:14:32;94110.84;;;20.14;90.14
28911;BME280;16028;42.642;23.310;2022-07-06T06:16:59;94108.19;;;20.14;90.16
28911;BME280;16028;42.642;23.310;2022-07-06T06:19:26;94108.81;;;20.22;90.39
28911;BME280;16028;42.642;23.310;2022-07-06T06:21:53;94099.88;;;20.23;90.16
28911;BME280;16028;42.642;23.310;2022-07-06T06:24:20;94100.28;;;20.40;90.21
28911;BME280;16028;42.642;23.310;2022-07-06T06:26:49;94095.81;;;20.47;87.51
28911;BME280;16028;42.642;23.310;2022-07-06T06:29:17;94092.16;;;20.48;88.62
28911;BME280;16028;42.642;23.310;2022-07-06T06:31:44;94100.69;;;20.50;88.97
28911;BME280;16028;42.642;23.310;2022-07-06T06:34:11;94092.16;;;20.61;88.07
28911;BME280;16028;42.642;23.310;2022-07-06T06:36:38;94087.84;;;20.67;89.47
28911;BME280;16028;42.642;23.310;2022-07-06T06:39:05;94102.91;;;20.66;91.03
28911;BME280;16028;42.642;23.310;2022-07-06T06:41:32;94095.16;;;20.65;91.64
28911;BME280;16028;42.642;23.310;2022-07-06T06:43:58;94100.47;;;20.65;89.58
28911;BME280;16028;42.642;23.310;2022-07-06T06:46:27;94095.59;;;20.55;90.72
28911;BME280;16028;42.642;23.310;2022-07-06T06:48:53;94099.47;;;20.46;92.93
28911;BME280;16028;42.642;23.310;2022-07-06T06:51:20;94098.06;;;20.43;92.93
28911;BME280;16028;42.642;23.310;2022-07-06T06:53:47;94102.13;;;20.46;93.03
28911;BME280;16028;42.642;23.310;2022-07-06T06:56:14;94095.59;;;20.55;93.73
28911;BME280;16028;42.642;23.310;2022-07-06T06:58:42;94099.69;;;20.51;93.14
28911;BME280;16028;42.642;23.310;2022-07-06T07:01:09;94091.94;;;20.56;93.31
28911;BME280;16028;42.642;23.310;2022-07-06T07:03:37;94101.69;;;20.62;91.69
28911;BME280;16028;42.642;23.310;2022-07-06T07:06:04;94094.00;;;20.54;91.25
28911;BME280;16028;42.642;23.310;2022-07-06T07:08:31;94091.53;;;20.59;89.46
28911;BME280;16028;42.642;23.310;2022-07-06T07:10:58;94097.59;;;20.73;90.11
28911;BME280;16028;42.642;23.310;2022-07-06T07:13:25;94098.59;;;20.78;89.53
28911;BME280;16028;42.642;23.310;2022-07-06T07:15:52;94102.66;;;20.81;89.95
28911;BME280;16028;42.642;23.310;2022-07-06T07:18:20;94093.53;;;20.83;88.52
28911;BME280;16028;42.642;23.310;2022-07-06T07:20:49;94102.03;;;20.85;89.32
28911;BME280;16028;42.642;23.310;2022-07-06T07:23:16;94100.22;;;20.86;90.73
28911;BME280;16028;42.642;23.310;2022-07-06T07:25:42;94092.06;;;20.87;88.91
28911;BME280;16028;42.642;23.310;2022-07-06T07:28:09;94095.72;;;20.93;89.13
28911;BME280;16028;42.642;23.310;2022-07-06T07:30:36;94097.56;;;20.86;87.96
28911;BME280;16028;42.642;23.310;2022-07-06T07:33:06;94103.28;;;20.83;88.68
28911;BME280;16028;42.642;23.310;2022-07-06T07:35:33;94106.94;;;20.75;89.48
28911;BME280;16028;42.642;23.310;2022-07-06T07:38:02;94100.84;;;20.75;90.25
28911;BME280;16028;42.642;23.310;2022-07-06T07:40:31;94106.34;;;20.80;92.16
28911;BME280;16028;42.642;23.310;2022-07-06T07:42:59;94103.03;;;20.91;91.72
28911;BME280;16028;42.642;23.310;2022-07-06T07:45:27;94098.38;;;20.93;90.62
28911;BME280;16028;42.642;23.310;2022-07-06T07:47:54;94096.50;;;20.93;89.11
28911;BME280;16028;42.642;23.310;2022-07-06T07:50:21;94105.06;;;21.02;88.79
28911;BME280;16028;42.642;23.310;2022-07-06T07:52:48;94085.75;;;20.95;89.54
28911;BME280;16028;42.642;23.310;2022-07-06T07:55:16;94094.06;;;20.98;89.20
28911;BME280;16028;42.642;23.310;2022-07-06T07:57:43;94088.78;;;20.98;89.86
28911;BME280;16028;42.642;23.310;2022-07-06T08:00:11;94092.41;;;21.04;88.54
28911;BME280;16028;42.642;23.310;2022-07-06T08:02:38;94083.06;;;21.08;89.69
28911;BME280;16028;42.642;23.310;2022-07-06T08:05:06;94082.38;;;21.26;89.24
28911;BME280;16028;42.642;23.310;2022-07-06T08:07:33;94085.03;;;21.26;88.47
28911;BME280;16028;42.642;23.310;2022-07-06T08:10:00;94091.69;;;21.35;85.74
28911;BME280;16028;42.642;23.310;2022-07-06T08:12:29;94092.13;;;21.32;87.22
28911;BME280;16028;42.642;23.310;2022-07-06T08:14:56;94091.34;;;21.31;87.49
28911;BME280;16028;42.642;23.310;2022-07-06T08:17:24;94092.94;;;21.32;86.81
28911;BME280;16028;42.642;23.310;2022-07-06T08:19:51;94088.81;;;21.43;85.65
28911;BME280;16028;42.642;23.310;2022-07-06T08:22:18;94098.50;;;21.62;86.41
28911;BME280;16028;42.642;23.310;2022-07-06T08:24:45;94093.59;;;21.66;86.69
28911;BME280;16028;42.642;23.310;2022-07-06T08:27:11;94098.41;;;21.75;84.95
28911;BME280;16028;42.642;23.310;2022-07-06T08:29:40;94082.91;;;21.79;85.07
28911;BME280;16028;42.642;23.310;2022-07-06T08:32:07;94088.19;;;21.85;83.31
28911;BME280;16028;42.642;23.310;2022-07-06T08:34:33;94084.91;;;21.90;86.16
28911;BME280;16028;42.642;23.310;2022-07-06T08:37:00;94080.38;;;21.97;85.38
28911;BME280;16028;42.642;23.310;2022-07-06T08:39:29;94084.00;;;22.02;81.37
28911;BME280;16028;42.642;23.310;2022-07-06T08:41:56;94078.50;;;22.04;82.46
28911;BME280;16028;42.642;23.310;2022-07-06T08:44:24;94077.09;;;22.01;83.09
28911;BME280;16028;42.642;23.310;2022-07-06T08:46:54;94077.56;;;22.17;81.34
28911;BME280;16028;42.642;23.310;2022-07-06T08:49:22;94082.91;;;22.35;79.12
28911;BME280;16028;42.642;23.310;2022-07-06T08:51:51;94085.13;;;22.38;82.24
28911;BME280;16028;42.642;23.310;2022-07-06T08:54:20;94075.56;;;22.37;82.95
28911;BME280;16028;42.642;23.310;2022-07-06T08:56:48;94083.81;;;22.47;82.05
28911;BME280;16028;42.642;23.310;2022-07-06T08:59:16;94081.09;;;22.53;81.77
28911;BME280;16028;42.642;23.310;2022-07-06T09:01:43;94080.03;;;22.61;80.63
28911;BME280;16028;42.642;23.310;2022-07-06T09:04:13;94074.72;;;22.61;78.71
28911;BME280;16028;42.642;23.310;2022-07-06T09:06:45;94084.44;;;22.49;79.17
28911;BME280;16028;42.642;23.310;2022-07-06T09:09:17;94079.50;;;22.52;80.12
28911;BME280;16028;42.642;23.310;2022-07-06T09:11:45;94085.38;;;22.54;80.44
28911;BME280;16028;42.642;23.310;2022-07-06T09:14:12;94078.19;;;22.61;79.75
28911;BME280;16028;42.642;23.310;2022-07-06T09:16:39;94070.50;;;22.78;79.40
28911;BME280;16028;42.642;23.310;2022-07-06T09:19:06;94083.84;;;22.90;80.33
28911;BME280;16028;42.642;23.310;2022-07-06T09:21:34;94070.41;;;23.03;76.69
28911;BME280;16028;42.642;23.310;2022-07-06T09:24:06;94076.91;;;23.07;76.03
28911;BME280;16028;42.642;23.310;2022-07-06T09:26:34;94085.81;;;22.94;77.20
28911;BME280;16028;42.642;23.310;2022-07-06T09:29:01;94073.22;;;22.90;77.28
28911;BME280;16028;42.642;23.310;2022-07-06T09:31:31;94072.91;;;22.80;77.83
28911;BME280;16028;42.642;23.310;2022-07-06T09:34:00;94077.00;;;23.00;76.85
28911;BME280;16028;42.642;23.310;2022-07-06T09:36:45;94077.56;;;23.02;76.55
28911;BME280;16028;42.642;23.310;2022-07-06T09:39:23;94072.56;;;23.12;76.07
28911;BME280;16028;42.642;23.310;2022-07-06T09:41:51;94083.69;;;23.03;76.75
28911;BME280;16028;42.642;23.310;2022-07-06T09:44:21;94076.00;;;22.95;76.48
28911;BME280;16028;42.642;23.310;2022-07-06T09:46:50;94073.00;;;23.09;76.84
28911;BME280;16028;42.642;23.310;2022-07-06T09:49:18;94061.81;;;23.37;74.35
28911;BME280;16028;42.642;23.310;2022-07-06T09:51:47;94055.66;;;23.43;73.57
28911;BME280;16028;42.642;23.310;2022-07-06T09:54:15;94047.47;;;23.45;76.32
28911;BME280;16028;42.642;23.310;2022-07-06T09:56:45;94054.28;;;23.52;74.73
28911;BME280;16028;42.642;23.310;2022-07-06T09:59:17;94060.44;;;23.64;72.61
28911;BME280;16028;42.642;23.310;2022-07-06T10:01:45;94059.88;;;23.62;74.08
28911;BME280;16028;42.642;23.310;2022-07-06T10:04:12;94068.53;;;23.58;76.33
28911;BME280;16028;42.642;23.310;2022-07-06T10:06:41;94057.25;;;23.74;72.28
28911;BME280;16028;42.642;23.310;2022-07-06T10:09:10;94062.06;;;23.65;73.64
28911;BME280;16028;42.642;23.310;2022-07-06T10:11:38;94060.22;;;23.66;72.80
28911;BME280;16028;42.642;23.310;2022-07-06T10:14:08;94060.16;;;23.73;72.85
28911;BME280;16028;42.642;23.310;2022-07-06T10:16:38;94052.84;;;23.68;71.99
28911;BME280;16028;42.642;23.310;2022-07-06T10:19:07;94054.53;;;23.51;72.02
28911;BME280;16028;42.642;23.310;2022-07-06T10:21:36;94060.19;;;23.36;73.96
28911;BME280;16028;42.642;23.310;2022-07-06T10:24:04;94050.84;;;23.34;74.39
28911;BME280;16028;42.642;23.310;2022-07-06T10:26:36;94033.44;;;23.38;72.83
28911;BME280;16028;42.642;23.310;2022-07-06T10:29:04;94044.81;;;23.45;74.62
28911;BME280;16028;42.642;23.310;2022-07-06T10:31:33;94038.34;;;23.52;72.49
28911;BME280;16028;42.642;23.310;2022-07-06T10:34:01;94044.97;;;23.61;73.35
28911;BME280;16028;42.642;23.310;2022-07-06T10:36:29;94041.75;;;23.71;71.58
28911;BME280;16028;42.642;23.310;2022-07-06T10:38:57;94037.72;;;23.68;72.17
28911;BME280;16028;42.642;23.310;2022-07-06T10:41:45;94032.00;;;23.83;69.86
28911;BME280;16028;42.642;23.310;2022-07-06T10:44:15;94026.50;;;23.66;71.08
28911;BME280;16028;42.642;23.310;2022-07-06T10:46:49;94040.97;;;23.70;71.00
28911;BME280;16028;42.642;23.310;2022-07-06T10:49:16;94041.53;;;23.73;70.99
28911;BME280;16028;42.642;23.310;2022-07-06T10:51:43;94042.00;;;23.69;73.07
28911;BME280;16028;42.642;23.310;2022-07-06T10:54:10;94047.13;;;23.83;71.24
28911;BME280;16028;42.642;23.310;2022-07-06T10:56:40;94044.13;;;23.91;73.34
28911;BME280;16028;42.642;23.310;2022-07-06T10:59:10;94042.06;;;24.04;71.56
28911;BME280;16028;42.642;23.310;2022-07-06T11:01:38;94033.19;;;24.10;69.46
28911;BME280;16028;42.642;23.310;2022-07-06T11:04:07;94042.47;;;24.19;68.98
28911;BME280;16028;42.642;23.310;2022-07-06T11:06:35;94044.19;;;24.14;68.80
28911;BME280;16028;42.642;23.310;2022-07-06T11:09:03;94041.50;;;24.02;69.04
28911;BME280;16028;42.642;23.310;2022-07-06T11:11:41;94036.22;;;24.14;67.96
28911;BME280;16028;42.642;23.310;2022-07-06T11:14:13;94037.94;;;24.08;70.07
28911;BME280;16028;42.642;23.310;2022-07-06T11:16:59;94034.94;;;24.16;72.80
28911;BME280;16028;42.642;23.310;2022-07-06T11:19:28;94034.16;;;24.39;71.97
28911;BME280;16028;42.642;23.310;2022-07-06T11:21:56;94030.34;;;24.58;67.73
28911;BME280;16028;42.642;23.310;2022-07-06T11:24:26;94025.94;;;24.64;68.27
28911;BME280;16028;42.642;23.310;2022-07-06T11:26:54;94032.41;;;24.68;68.40
28911;BME280;16028;42.642;23.310;2022-07-06T11:29:30;94026.97;;;24.74;65.11
28911;BME280;16028;42.642;23.310;2022-07-06T11:31:58;94029.31;;;24.59;65.44
28911;BME280;16028;42.642;23.310;2022-07-06T11:34:28;94022.22;;;24.65;65.77
28911;BME280;16028;42.642;23.310;2022-07-06T11:36:55;94028.25;;;24.60;68.50
28911;BME280;16028;42.642;23.310;2022-07-06T11:39:23;94016.22;;;24.69;64.91
28911;BME280;16028;42.642;23.310;2022-07-06T11:41:54;94019.44;;;24.71;63.91
28911;BME280;16028;42.642;23.310;2022-07-06T11:44:21;94008.13;;;24.76;68.60
28911;BME280;16028;42.642;23.310;2022-07-06T11:46:49;94000.69;;;24.78;66.63
28911;BME280;16028;42.642;23.310;2022-07-06T11:49:17;93999.31;;;24.87;62.58
28911;BME280;16028;42.642;23.310;2022-07-06T11:51:46;94006.41;;;24.82;60.86
28911;BME280;16028;42.642;23.310;2022-07-06T11:54:13;94009.75;;;24.65;63.12
28911;BME280;16028;42.642;23.310;2022-07-06T11:56:46;94002.78;;;24.64;63.81
28911;BME280;16028;42.642;23.310;2022-07-06T11:59:14;93998.63;;;24.68;63.25
28911;BME280;16028;42.642;23.310;2022-07-06T12:01:42;93990.78;;;24.62;62.15
28911;BME280;16028;42.642;23.310;2022-07-06T12:04:13;94001.75;;;24.65;62.69
28911;BME280;16028;42.642;23.310;2022-07-06T12:06:40;94000.47;;;24.68;62.62
28911;BME280;16028;42.642;23.310;2022-07-06T12:09:10;93995.94;;;24.80;61.57
28911;BME280;16028;42.642;23.310;2022-07-06T12:11:38;93995.50;;;24.83;59.21
28911;BME280;16028;42.642;23.310;2022-07-06T12:14:13;93998.72;;;24.73;62.75
28911;BME280;16028;42.642;23.310;2022-07-06T12:16:40;94000.34;;;24.74;62.83
28911;BME280;16028;42.642;23.310;2022-07-06T12:19:07;93991.25;;;24.82;60.58
28911;BME280;16028;42.642;23.310;2022-07-06T12:21:42;93997.81;;;24.91;63.96
28911;BME280;16028;42.642;23.310;2022-07-06T12:24:09;93986.09;;;24.92;63.59
28911;BME280;16028;42.642;23.310;2022-07-06T12:26:42;94003.34;;;25.01;59.72
28911;BME280;16028;42.642;23.310;2022-07-06T12:29:10;93994.06;;;24.92;60.59
28911;BME280;16028;42.642;23.310;2022-07-06T12:31:40;93999.78;;;24.84;60.43
28911;BME280;16028;42.642;23.310;2022-07-06T12:34:13;93992.03;;;24.83;61.45
28911;BME280;16028;42.642;23.310;2022-07-06T12:36:45;93997.00;;;24.79;65.47
28911;BME280;16028;42.642;23.310;2022-07-06T12:39:13;94001.16;;;24.87;65.44
28911;BME280;16028;42.642;23.310;2022-07-06T12:41:45;94005.06;;;25.07;62.15
28911;BME280;16028;42.642;23.310;2022-07-06T12:44:13;93987.47;;;25.06;61.00
28911;BME280;16028;42.642;23.310;2022-07-06T12:46:41;93987.31;;;25.13;59.64
28911;BME280;16028;42.642;23.310;2022-07-06T12:49:16;93985.66;;;24.95;62.24
28911;BME280;16028;42.642;23.310;2022-07-06T12:51:59;93980.41;;;25.00;60.48